createdAt,value
2022-09-23T00:01:14.847Z,0.98
2022-09-23T00:03:45.615Z,1.10
2022-09-23T00:06:16.666Z,1.10
2022-09-23T00:08:44.299Z,0.88
2022-09-23T00:11:17.576Z,0.93
2022-09-23T00:13:46.586Z,1.10
2022-09-23T00:16:16.554Z,1.05
2022-09-23T00:18:43.966Z,1.00
2022-09-23T00:21:13.185Z,0.90
2022-09-23T00:23:41.361Z,0.80
2022-09-23T00:26:11.040Z,0.93
2022-09-23T00:28:38.506Z,0.90
2022-09-23T00:31:18.635Z,1.02
2022-09-23T00:33:45.777Z,1.00
2022-09-23T00:36:16.370Z,0.90
2022-09-23T00:38:45.353Z,0.88
2022-09-23T00:41:15.307Z,1.10
2022-09-23T00:43:49.021Z,0.95
2022-09-23T00:46:20.639Z,1.10
2022-09-23T00:48:49.077Z,0.95
2022-09-23T00:51:22.156Z,1.00
2022-09-23T00:53:51.506Z,1.10
2022-09-23T00:56:20.966Z,0.90
2022-09-23T00:58:50.456Z,0.95
2022-09-23T01:01:17.901Z,0.82
2022-09-23T01:03:46.605Z,0.90
2022-09-23T01:06:14.305Z,1.10
2022-09-23T01:08:43.477Z,1.00
2022-09-23T01:11:30.219Z,1.00
2022-09-23T01:14:22.312Z,0.90
2022-09-23T01:17:03.923Z,1.00
2022-09-23T01:20:02.505Z,0.90
2022-09-23T01:22:41.176Z,0.95
2022-09-23T01:25:52.551Z,0.70
2022-09-23T01:29:01.098Z,0.90
2022-09-23T01:31:50.917Z,0.90
2022-09-23T01:34:58.245Z,0.90
2022-09-23T01:38:11.905Z,1.08
2022-09-23T01:41:00.445Z,1.05
2022-09-23T01:43:46.116Z,0.85
2022-09-23T01:46:27.992Z,0.95
2022-09-23T01:49:00.725Z,1.00
2022-09-23T01:51:36.886Z,0.90
2022-09-23T01:54:06.536Z,0.98
2022-09-23T01:56:48.381Z,1.00
2022-09-23T01:59:26.666Z,0.90
2022-09-23T02:02:14.326Z,1.00
2022-09-23T02:04:51.786Z,0.90
2022-09-23T02:07:27.196Z,1.00
2022-09-23T02:12:38.906Z,1.17
2022-09-23T02:15:17.705Z,1.00
2022-09-23T02:17:54.495Z,1.20
2022-09-23T02:20:34.042Z,0.93
2022-09-23T02:23:15.229Z,0.82
2022-09-23T02:25:58.116Z,1.00
2022-09-23T02:28:41.295Z,0.80
2022-09-23T02:31:20.035Z,1.00
2022-09-23T02:33:59.767Z,0.90
2022-09-23T02:36:41.736Z,0.93
2022-09-23T02:39:13.115Z,0.95
2022-09-23T02:41:50.336Z,1.00
2022-09-23T02:44:19.772Z,1.00
2022-09-23T02:46:47.346Z,0.90
2022-09-23T02:49:19.170Z,1.08
2022-09-23T02:51:46.745Z,0.93
2022-09-23T02:54:18.407Z,0.80
2022-09-23T02:56:45.607Z,1.00
2022-09-23T02:59:13.290Z,1.00
2022-09-23T03:01:46.727Z,1.00
2022-09-23T03:04:42.677Z,0.90
2022-09-23T03:07:32.362Z,0.93
2022-09-23T03:10:10.816Z,0.95
2022-09-23T03:12:48.405Z,0.90
2022-09-23T03:15:40.976Z,0.77
2022-09-23T03:18:23.715Z,0.95
2022-09-23T03:20:59.196Z,0.95
2022-09-23T03:23:35.876Z,0.90
2022-09-23T03:26:12.585Z,0.90
2022-09-23T03:28:43.765Z,1.00
2022-09-23T03:31:13.231Z,0.80
2022-09-23T03:34:03.526Z,0.88
2022-09-23T03:36:51.620Z,1.15
2022-09-23T03:39:34.517Z,0.90
2022-09-23T03:42:07.966Z,1.00
2022-09-23T03:44:39.146Z,0.98
2022-09-23T03:47:06.815Z,0.90
2022-09-23T03:49:37.410Z,1.00
2022-09-23T03:52:04.449Z,0.80
2022-09-23T03:54:31.665Z,0.98
2022-09-23T03:57:00.048Z,0.90
2022-09-23T03:59:27.807Z,0.73
2022-09-23T04:01:55.734Z,0.98
2022-09-23T04:04:23.125Z,0.80
2022-09-23T04:06:50.038Z,0.70
2022-09-23T04:09:17.026Z,0.90
2022-09-23T04:11:44.017Z,0.80
2022-09-23T04:14:12.239Z,0.77
2022-09-23T04:16:39.283Z,0.80
2022-09-23T04:19:10.846Z,0.90
2022-09-23T04:21:39.266Z,0.88
2022-09-23T04:24:06.720Z,0.70
2022-09-23T04:26:34.827Z,0.80
2022-09-23T04:29:02.043Z,0.93
2022-09-23T04:31:29.182Z,0.63
2022-09-23T04:33:56.476Z,0.75
2022-09-23T04:36:23.539Z,0.90
2022-09-23T04:38:51.225Z,0.85
2022-09-23T04:41:19.566Z,0.80
2022-09-23T04:43:46.736Z,1.00
2022-09-23T04:46:15.505Z,1.10
2022-09-23T04:48:42.997Z,0.90
2022-09-23T04:51:13.036Z,0.80
2022-09-23T04:53:41.936Z,1.00
2022-09-23T04:56:12.577Z,1.45
2022-09-23T04:58:40.586Z,1.17
2022-09-23T05:01:17.164Z,1.02
2022-09-23T05:03:46.026Z,1.00
2022-09-23T05:06:14.633Z,1.15
2022-09-23T05:08:46.735Z,0.90
2022-09-23T05:11:13.761Z,0.90
2022-09-23T05:13:40.751Z,1.15
2022-09-23T05:16:12.134Z,1.30
2022-09-23T05:18:43.996Z,1.20
2022-09-23T05:21:16.216Z,1.20
2022-09-23T05:23:47.262Z,1.10
2022-09-23T05:26:14.812Z,1.30
2022-09-23T05:28:41.897Z,1.25
2022-09-23T05:31:19.971Z,1.40
2022-09-23T05:33:52.091Z,1.30
2022-09-23T05:36:22.986Z,1.40
2022-09-23T05:38:51.387Z,1.40
2022-09-23T05:41:23.122Z,1.30
2022-09-23T05:43:54.046Z,1.27
2022-09-23T05:46:26.478Z,1.15
2022-09-23T05:48:57.605Z,1.50
2022-09-23T05:51:30.903Z,1.40
2022-09-23T05:53:59.469Z,1.42
2022-09-23T05:56:28.037Z,1.10
2022-09-23T05:58:57.204Z,1.23
2022-09-23T06:01:27.883Z,1.20
2022-09-23T06:03:56.820Z,1.40
2022-09-23T06:06:30.697Z,1.27
2022-09-23T06:08:59.380Z,1.08
2022-09-23T06:11:27.100Z,1.40
2022-09-23T06:14:02.255Z,1.10
2022-09-23T06:19:00.623Z,1.25
2022-09-23T06:21:30.456Z,1.38
2022-09-23T06:24:00.666Z,1.60
2022-09-23T06:26:32.127Z,1.60
2022-09-23T06:28:59.176Z,1.33
2022-09-23T06:31:26.324Z,1.10
2022-09-23T06:34:04.102Z,1.10
2022-09-23T06:36:42.314Z,1.13
2022-09-23T06:39:11.612Z,0.93
2022-09-23T06:41:39.431Z,1.10
2022-09-23T06:44:06.650Z,1.23
2022-09-23T06:46:34.047Z,1.25
2022-09-23T06:49:02.960Z,1.13
2022-09-23T06:51:30.056Z,1.20
2022-09-23T06:53:57.151Z,1.48
2022-09-23T06:56:36.391Z,1.10
2022-09-23T06:59:06.607Z,1.05
2022-09-23T07:01:34.555Z,1.30
2022-09-23T07:04:02.063Z,1.10
2022-09-23T07:06:29.077Z,1.58
2022-09-23T07:08:56.086Z,1.80
2022-09-23T07:11:23.162Z,1.42
2022-09-23T07:13:51.036Z,1.65
2022-09-23T07:16:18.348Z,2.13
2022-09-23T07:18:45.844Z,1.55
2022-09-23T07:21:18.496Z,1.40
2022-09-23T07:23:47.792Z,1.80
2022-09-23T07:26:16.556Z,1.42
2022-09-23T07:28:43.994Z,1.40
2022-09-23T07:31:17.038Z,1.50
2022-09-23T07:33:46.230Z,1.45
2022-09-23T07:36:17.475Z,1.90
2022-09-23T07:38:46.598Z,2.08
2022-09-23T07:41:16.140Z,1.50
2022-09-23T07:43:44.215Z,1.55
2022-09-23T07:46:17.663Z,2.05
2022-09-23T07:48:46.120Z,3.58
2022-09-23T07:51:19.176Z,2.70
2022-09-23T07:53:53.411Z,2.80
2022-09-23T07:56:22.708Z,2.60
2022-09-23T07:59:04.629Z,2.50
2022-09-23T08:01:36.972Z,2.95
2022-09-23T08:04:08.464Z,2.70
2022-09-23T08:06:35.956Z,2.75
2022-09-23T08:09:03.075Z,2.92
2022-09-23T08:11:30.408Z,3.10
2022-09-23T08:13:57.870Z,3.60
2022-09-23T08:16:25.027Z,3.30
2022-09-23T08:18:52.187Z,2.95
2022-09-23T08:21:23.020Z,3.65
2022-09-23T08:23:50.842Z,3.42
2022-09-23T08:26:21.612Z,3.28
2022-09-23T08:28:49.542Z,3.88
2022-09-23T08:31:16.849Z,4.60
2022-09-23T08:33:44.575Z,5.18
2022-09-23T08:36:11.605Z,4.72
2022-09-23T08:38:38.592Z,4.70
2022-09-23T08:41:57.490Z,5.10
2022-09-23T08:44:51.757Z,5.30
2022-09-23T08:47:29.676Z,4.80
2022-09-23T08:50:01.688Z,4.68
2022-09-23T08:53:04.947Z,4.82
2022-09-23T08:55:47.005Z,4.40
2022-09-23T08:58:35.245Z,3.60
2022-09-23T09:01:10.674Z,4.13
2022-09-23T09:03:47.998Z,5.05
2022-09-23T09:06:23.575Z,3.85
2022-09-23T09:11:27.517Z,3.45
2022-09-23T09:14:05.176Z,3.33
2022-09-23T09:16:58.843Z,2.50
2022-09-23T09:19:52.322Z,3.38
2022-09-23T09:22:51.445Z,2.45
2022-09-23T09:25:48.051Z,2.20
2022-09-23T09:28:36.415Z,2.50
2022-09-23T09:31:29.018Z,2.47
2022-09-23T09:34:09.540Z,2.55
2022-09-23T09:36:45.805Z,2.67
2022-09-23T09:39:14.747Z,2.60
2022-09-23T09:41:49.907Z,2.53
2022-09-23T09:44:25.216Z,2.33
2022-09-23T09:47:18.205Z,1.90
2022-09-23T09:49:54.126Z,2.30
2022-09-23T09:52:26.937Z,2.88
2022-09-23T09:54:59.346Z,2.88
2022-09-23T09:57:41.281Z,2.53
2022-09-23T10:00:22.073Z,2.70
2022-09-23T10:03:14.932Z,2.92
2022-09-23T10:05:47.719Z,3.13
2022-09-23T10:08:35.370Z,3.10
2022-09-23T10:11:15.197Z,3.15
2022-09-23T10:14:00.549Z,2.60
2022-09-23T10:16:28.672Z,3.17
2022-09-23T10:18:57.126Z,3.50
2022-09-23T10:21:27.871Z,3.17
2022-09-23T10:24:01.659Z,3.50
2022-09-23T10:26:33.355Z,3.28
2022-09-23T10:29:26.027Z,3.67
2022-09-23T10:32:17.841Z,3.10
2022-09-23T10:34:47.152Z,3.50
2022-09-23T10:37:25.602Z,3.58
2022-09-23T10:40:11.101Z,3.50
2022-09-23T10:43:32.593Z,3.45
2022-09-23T10:46:23.296Z,3.20
2022-09-23T10:49:10.303Z,2.97
2022-09-23T10:52:06.790Z,3.45
2022-09-23T10:55:11.176Z,3.08
2022-09-23T10:57:53.304Z,3.20
2022-09-23T11:00:30.718Z,4.07
2022-09-23T11:03:24.969Z,3.30
2022-09-23T11:05:55.502Z,3.22
2022-09-23T11:08:37.531Z,3.55
2022-09-23T11:11:20.603Z,3.13
2022-09-23T11:13:58.584Z,3.90
2022-09-23T11:16:32.204Z,3.60
2022-09-23T11:19:14.316Z,3.60
2022-09-23T11:21:59.972Z,3.85
2022-09-23T11:25:12.347Z,3.30
2022-09-23T11:28:17.521Z,3.35
2022-09-23T11:31:35.420Z,3.55
2022-09-23T11:34:23.085Z,3.78
2022-09-23T11:36:54.352Z,3.42
2022-09-23T11:39:27.432Z,3.85
2022-09-23T11:41:56.865Z,3.60
2022-09-23T11:44:35.733Z,3.03
2022-09-23T11:47:20.923Z,4.18
2022-09-23T11:49:58.048Z,3.38
2022-09-23T11:52:36.165Z,3.20
2022-09-23T11:55:21.951Z,3.33
2022-09-23T11:58:01.885Z,3.33
2022-09-23T12:00:34.513Z,3.33
2022-09-23T12:03:12.382Z,4.13
2022-09-23T12:05:47.624Z,3.33
2022-09-23T12:08:29.522Z,3.35
2022-09-23T12:11:14.159Z,3.30
2022-09-23T12:14:12.508Z,2.28
2022-09-23T12:16:52.597Z,3.22
2022-09-23T12:19:51.766Z,3.28
2022-09-23T12:22:39.931Z,3.40
2022-09-23T12:25:28.915Z,3.28
2022-09-23T12:28:26.705Z,3.00
2022-09-23T12:30:57.212Z,3.38
2022-09-23T12:33:26.271Z,3.65
2022-09-23T12:36:04.926Z,3.70
2022-09-23T12:38:49.672Z,3.42
2022-09-23T12:41:41.632Z,3.80
2022-09-23T12:44:12.023Z,4.65
2022-09-23T12:46:42.184Z,4.20
2022-09-23T12:49:36.233Z,4.13
2022-09-23T12:52:14.693Z,3.08
2022-09-23T12:54:51.565Z,3.28
2022-09-23T12:57:33.751Z,2.80
2022-09-23T13:00:23.105Z,3.00
2022-09-23T13:03:08.746Z,3.30
2022-09-23T13:06:19.724Z,3.22
2022-09-23T13:08:47.931Z,4.13
2022-09-23T13:11:28.762Z,4.20
2022-09-23T13:14:00.755Z,4.03
2022-09-23T13:16:37.078Z,3.00
2022-09-23T13:19:06.575Z,3.40
2022-09-23T13:21:42.803Z,3.15
2022-09-23T13:24:31.295Z,3.30
2022-09-23T13:27:17.682Z,2.80
2022-09-23T13:29:53.673Z,3.53
2022-09-23T13:32:25.911Z,3.50
2022-09-23T13:35:15.896Z,3.15
2022-09-23T13:37:48.236Z,3.60
2022-09-23T13:40:45.112Z,2.78
2022-09-23T13:43:31.906Z,3.25
2022-09-23T13:46:01.079Z,3.28
2022-09-23T13:48:28.866Z,3.50
2022-09-23T13:50:56.277Z,3.50
2022-09-23T13:53:28.737Z,3.33
2022-09-23T13:56:19.857Z,3.38
2022-09-23T13:58:46.878Z,3.83
2022-09-23T14:01:21.828Z,3.72
2022-09-23T14:03:49.100Z,3.63
2022-09-23T14:06:16.771Z,3.00
2022-09-23T14:08:51.279Z,3.83
2022-09-23T14:11:23.291Z,3.60
2022-09-23T14:13:55.172Z,3.80
2022-09-23T14:16:28.340Z,3.90
2022-09-23T14:19:00.605Z,4.05
2022-09-23T14:21:36.931Z,3.70
2022-09-23T14:24:23.498Z,4.18
2022-09-23T14:27:00.791Z,3.28
2022-09-23T14:29:32.749Z,4.07
2022-09-23T14:32:04.002Z,4.45
2022-09-23T14:34:50.814Z,3.50
2022-09-23T14:37:55.267Z,4.10
2022-09-23T14:40:27.734Z,3.58
2022-09-23T14:43:26.036Z,4.07
2022-09-23T14:45:58.523Z,2.47
2022-09-23T14:48:32.787Z,2.88
2022-09-23T14:51:02.508Z,2.55
2022-09-23T14:53:38.446Z,2.47
2022-09-23T14:56:08.613Z,1.80
2022-09-23T14:58:52.712Z,2.65
2022-09-23T15:01:26.306Z,2.60
2022-09-23T15:03:54.623Z,3.08
2022-09-23T15:06:23.393Z,1.50
2022-09-23T15:08:55.438Z,2.17
2022-09-23T15:11:23.010Z,1.90
2022-09-23T15:13:52.845Z,1.90
2022-09-23T15:16:27.944Z,2.88
2022-09-23T15:18:57.814Z,2.30
2022-09-23T15:21:30.214Z,1.70
2022-09-23T15:23:57.840Z,1.80
2022-09-23T15:26:47.339Z,2.78
2022-09-23T15:29:14.529Z,2.05
2022-09-23T15:31:41.976Z,1.80
2022-09-23T15:34:11.141Z,1.60
2022-09-23T15:36:38.750Z,1.10
2022-09-23T15:39:10.463Z,2.10
2022-09-23T15:41:37.683Z,2.42
2022-09-23T15:44:28.742Z,1.33
2022-09-23T15:47:00.146Z,1.40
2022-09-23T15:49:36.270Z,1.33
2022-09-23T15:52:05.748Z,4.45
2022-09-23T15:54:33.941Z,4.07
2022-09-23T15:57:35.622Z,4.50
2022-09-23T16:00:05.437Z,4.38
2022-09-23T16:02:47.109Z,4.07
2022-09-23T16:05:36.888Z,5.22
2022-09-23T16:08:10.575Z,2.92
2022-09-23T16:10:41.474Z,1.80
2022-09-23T16:13:12.963Z,1.50
2022-09-23T16:15:40.948Z,1.35
2022-09-23T16:18:09.554Z,1.40
2022-09-23T16:20:42.484Z,1.52
2022-09-23T16:23:35.247Z,1.30
2022-09-23T16:26:06.347Z,1.23
2022-09-23T16:28:34.149Z,1.17
2022-09-23T16:31:01.275Z,1.50
2022-09-23T16:33:28.438Z,1.50
2022-09-23T16:35:55.950Z,1.50
2022-09-23T16:38:23.009Z,1.40
2022-09-23T16:40:51.685Z,1.40
2022-09-23T16:43:20.309Z,1.42
2022-09-23T16:45:47.590Z,1.50
2022-09-23T16:48:14.961Z,1.50
2022-09-23T16:50:45.907Z,1.42
2022-09-23T16:53:13.106Z,1.60
2022-09-23T16:55:42.926Z,1.40
2022-09-23T16:58:12.562Z,1.70
2022-09-23T17:01:00.596Z,1.45
2022-09-23T17:03:42.568Z,1.65
2022-09-23T17:06:15.907Z,1.60
2022-09-23T17:08:43.180Z,1.30
2022-09-23T17:11:14.478Z,1.50
2022-09-23T17:13:42.460Z,1.38
2022-09-23T17:16:11.967Z,1.60
2022-09-23T17:18:39.256Z,1.50
2022-09-23T17:21:08.468Z,1.70
2022-09-23T17:23:38.319Z,1.60
2022-09-23T17:26:05.657Z,1.83
2022-09-23T17:28:32.768Z,1.60
2022-09-23T17:31:02.351Z,1.67
2022-09-23T17:33:31.229Z,1.70
2022-09-23T17:36:00.081Z,1.80
2022-09-23T17:38:29.465Z,1.80
2022-09-23T17:41:05.397Z,1.58
2022-09-23T17:43:33.621Z,1.77
2022-09-23T17:46:07.023Z,1.90
2022-09-23T17:48:36.564Z,2.00
2022-09-23T17:51:12.287Z,2.00
2022-09-23T17:53:40.851Z,1.90
2022-09-23T17:56:25.095Z,1.95
2022-09-23T17:58:53.647Z,2.33
2022-09-23T18:01:26.253Z,2.05
2022-09-23T18:04:05.840Z,2.40
2022-09-23T18:06:38.309Z,2.08
2022-09-23T18:09:07.787Z,2.10
2022-09-23T18:11:37.599Z,2.20
2022-09-23T18:14:08.272Z,2.17
2022-09-23T18:16:37.812Z,2.70
2022-09-23T18:19:06.237Z,2.55
2022-09-23T18:21:36.892Z,2.38
2022-09-23T18:24:30.827Z,2.60
2022-09-23T18:26:51.508Z,2.42
2022-09-23T18:29:19.811Z,2.60
2022-09-23T18:31:49.356Z,3.08
2022-09-23T18:34:17.227Z,2.60
2022-09-23T18:36:44.974Z,2.90
2022-09-23T18:39:12.299Z,2.65
2022-09-23T18:41:39.337Z,2.67
2022-09-23T18:44:07.829Z,2.70
2022-09-23T18:46:35.096Z,2.95
2022-09-23T18:49:21.008Z,2.72
2022-09-23T18:51:54.637Z,3.47
2022-09-23T18:54:27.465Z,2.97
2022-09-23T18:56:54.937Z,2.75
2022-09-23T18:59:26.327Z,3.55
2022-09-23T19:01:56.841Z,3.50
2022-09-23T19:04:26.445Z,3.53
2022-09-23T19:06:56.578Z,3.40
2022-09-23T19:09:26.033Z,3.70
2022-09-23T19:11:53.890Z,3.72
2022-09-23T19:14:23.792Z,3.97
2022-09-23T19:16:51.056Z,4.03
2022-09-23T19:19:19.218Z,4.25
2022-09-23T19:21:46.272Z,3.85
2022-09-23T19:24:16.109Z,3.80
2022-09-23T19:26:44.120Z,3.65
2022-09-23T19:29:22.098Z,3.80
2022-09-23T19:31:49.390Z,4.05
2022-09-23T19:34:18.752Z,3.28
2022-09-23T19:36:47.487Z,3.38
2022-09-23T19:39:23.789Z,2.95
2022-09-23T19:41:52.705Z,2.80
2022-09-23T19:44:20.295Z,2.70
2022-09-23T19:46:55.044Z,3.17
2022-09-23T19:49:24.981Z,3.38
2022-09-23T19:51:55.735Z,3.00
2022-09-23T19:54:23.628Z,2.90
2022-09-23T19:56:53.928Z,3.00
2022-09-23T19:59:20.969Z,3.38
2022-09-23T20:01:48.754Z,2.90
2022-09-23T20:04:16.932Z,3.17
2022-09-23T20:06:46.152Z,2.83
2022-09-23T20:09:13.363Z,2.80
2022-09-23T20:11:40.827Z,2.60
2022-09-23T20:14:10.462Z,3.15
2022-09-23T20:16:37.603Z,2.88
2022-09-23T20:19:05.795Z,2.83
2022-09-23T20:21:33.968Z,3.67
2022-09-23T20:24:01.393Z,3.63
2022-09-23T20:26:46.818Z,3.10
2022-09-23T20:29:13.892Z,2.90
2022-09-23T20:31:41.683Z,2.28
2022-09-23T20:34:11.006Z,2.58
2022-09-23T20:36:41.028Z,2.47
2022-09-23T20:39:09.737Z,2.65
2022-09-23T20:41:38.538Z,3.00
2022-09-23T20:44:09.890Z,3.25
2022-09-23T20:46:37.084Z,2.80
2022-09-23T20:49:04.517Z,3.50
2022-09-23T20:51:35.053Z,3.03
2022-09-23T20:54:02.241Z,3.08
2022-09-23T20:56:29.926Z,2.97
2022-09-23T20:59:01.079Z,2.85
2022-09-23T21:01:28.472Z,2.80
2022-09-23T21:03:57.918Z,2.63
2022-09-23T21:06:27.267Z,3.13
2022-09-23T21:08:55.125Z,2.40
2022-09-23T21:11:22.433Z,2.83
2022-09-23T21:13:51.333Z,2.40
2022-09-23T21:16:22.892Z,2.65
2022-09-23T21:18:52.669Z,2.75
2022-09-23T21:21:22.294Z,2.28
2022-09-23T21:23:50.528Z,2.60
2022-09-23T21:26:23.346Z,2.50
2022-09-23T21:28:57.099Z,2.60
2022-09-23T21:31:33.409Z,2.47
2022-09-23T21:34:05.956Z,2.78
2022-09-23T21:36:37.136Z,2.10
2022-09-23T21:39:05.608Z,2.75
2022-09-23T21:41:33.591Z,2.90
2022-09-23T21:44:04.641Z,2.50
2022-09-23T21:46:33.921Z,2.50
2022-09-23T21:49:03.331Z,2.60
2022-09-23T21:51:38.746Z,2.65
2022-09-23T21:56:35.488Z,2.55
2022-09-23T21:59:02.826Z,2.15
2022-09-23T22:01:35.208Z,2.10
2022-09-23T22:04:08.447Z,2.13
2022-09-23T22:06:38.323Z,2.30
2022-09-23T22:09:09.220Z,2.10
2022-09-23T22:11:56.167Z,2.20
2022-09-23T22:14:26.205Z,2.25
2022-09-23T22:16:57.707Z,2.35
2022-09-23T22:19:27.217Z,2.17
2022-09-23T22:21:56.459Z,2.17
2022-09-23T22:24:23.506Z,1.90
2022-09-23T22:26:50.657Z,2.08
2022-09-23T22:29:36.397Z,2.10
2022-09-23T22:34:51.890Z,1.90
2022-09-23T22:37:27.577Z,1.60
2022-09-23T22:39:55.026Z,1.90
2022-09-23T22:42:22.633Z,1.70
2022-09-23T22:44:51.021Z,1.90
2022-09-23T22:47:18.752Z,1.90
2022-09-23T22:49:49.110Z,1.92
2022-09-23T22:52:21.175Z,1.70
2022-09-23T22:54:48.351Z,2.03
2022-09-23T22:57:15.465Z,1.73
2022-09-23T22:59:48.172Z,1.70
2022-09-23T23:02:19.991Z,1.63
2022-09-23T23:04:48.286Z,1.67
2022-09-23T23:07:21.055Z,1.88
2022-09-23T23:09:51.735Z,1.50
2022-09-23T23:12:20.510Z,1.60
2022-09-23T23:14:48.961Z,1.70
2022-09-23T23:17:16.231Z,1.50
2022-09-23T23:19:43.307Z,1.50
2022-09-23T23:22:10.348Z,1.35
2022-09-23T23:24:37.489Z,1.67
2022-09-23T23:27:04.577Z,1.70
2022-09-23T23:29:31.588Z,1.65
2022-09-23T23:31:58.676Z,1.55
2022-09-23T23:34:25.776Z,1.50
2022-09-23T23:36:55.113Z,1.60
2022-09-23T23:39:23.923Z,1.70
2022-09-23T23:41:55.614Z,1.58
2022-09-23T23:44:24.727Z,1.40
2022-09-23T23:46:52.797Z,1.60
2022-09-23T23:49:19.896Z,1.38
2022-09-23T23:51:49.310Z,1.25
2022-09-23T23:54:16.507Z,1.50
2022-09-23T23:56:46.552Z,1.40
2022-09-23T23:59:13.646Z,1.45
